Logo AVAMET
Benvolgut visitant, si us plau, ingressa Recuperar contrasenya
AVAMET paisatges

IVIA Almoradí Les Moreres

Dades diàries. Acumulats / Últims 30 dies disponibles

Data Temperatura (°C) Humitat rel. (%) Pressió rel. (hPa) Vent (km/h) Precipitació
Mínima Mitjana Màxima Amplitud
tèrmica
Mínima Mitjana Màxima Mínima Mitjana Màxima Predom. Mitjana Ràfega
màxima
Total
(mm)
Índex-n
Mínima Mitjana Màxima Mínima Mitjana Màxima n
0 a 1
P0 max
mm 5'
Dades mensuals acumulades fins l'últim dia disponible
04/2020 8,7 9,9 10,5 13,8 17,6 18,9 20,1 11,4 80   3,3 17,9 8,3
Dades anuals acumulades fins l'últim dia disponible
2020 4,1 9,3 14,4 13,5 9,5 19,2 28,1 24,0 18 79 100   4,3 39,3 207,9
Últims 30 dies disponibles
04-04-2020 10,0     13,8     17,6 7,6 80 NE 2,2 13,1 0,0
03-04-2020 10,2     13,9     20,1 9,9 72 W 3,6 15,3 0,0
02-04-2020 8,7     12,6     18,0 9,3 84 NW 3,4 14,4 0,8
01-04-2020 10,5     14,9     19,8 9,3 85 W 3,9 17,9 7,5
31-03-2020 10,5     13,7     18,7 8,2 65 85 98 NE 2,7 11,8 6,5
30-03-2020 9,7     12,6     16,5 6,8 65 78 89 NE 5,2 19,7 0,0
29-03-2020 7,9     13,9     20,8 12,9 37 67 91 O 5,5 17,5 0,0
28-03-2020 8,2     11,5     17,6 9,4 43 75 96 NO 3,3 16,1 2,6
27-03-2020 8,5     10,0     11,6 3,1 71 87 97 N 3,2 18,2 8,5
26-03-2020 7,7     12,7     19,7 12,0 31 75 99 N 4,1 20,0 0,4
25-03-2020 9,3     11,8     15,1 5,8 60 75 97 NE 2,9 18,0 1,0
24-03-2020 11,1     12,6     13,6 2,5 72 93 99 NE 9,4 26,0 62,7
23-03-2020 10,4     13,1     16,1 5,7 83 94 99 N 5,5 21,0 14,0
22-03-2020 8,6     11,8     15,7 7,1 72 89 98 NO 3,1 11,7 6,9
21-03-2020 9,6     13,2     18,0 8,4 65 85 98 N 3,4 16,1 26,0
20-03-2020 11,3     13,8     16,0 4,7 63 77 91 NE 5,7 21,1 0,0
19-03-2020 11,4     14,4     17,4 6,0 66 77 86 NE 5,3 20,8 0,0
18-03-2020 12,9     15,7     18,8 5,9 55 70 82 NE 6,3 23,1 0,0
17-03-2020 9,1     13,1     16,8 7,7 70 84 96 N 5,4 26,5 3,2
16-03-2020 9,1     13,0     17,7 8,6 62 81 96 O 4,1 23,8 0,4
15-03-2020 11,4     15,2     19,0 7,6 59 80 96 NE 2,4 13,6 0,0
14-03-2020 11,5     15,2     20,6 9,1 58 79 91 NE 2,9 14,2 0,0
13-03-2020 12,2     16,2     22,6 10,4 44 67 88 NE 2,3 12,7 0,0
12-03-2020 11,2     17,1     25,6 14,4 37 68 95 N 1,9 10,8 0,0
11-03-2020 11,3     17,6     28,1 16,8 28 64 91 O 3,3 14,2 0,0
10-03-2020 11,4     15,3     19,4 8,0 33 64 92 E 3,8 17,6 0,0
09-03-2020 14,4     18,7     23,8 9,4 20 35 54 NO 5,9 24,1 0,0
08-03-2020 8,0     15,9     24,4 16,4 18 50 82 O 6,0 21,6 0,0
07-03-2020 10,3     14,3     20,2 9,9 27 41 78 NO 5,9 23,8 0,0
06-03-2020 11,4     15,1     18,6 7,2 20 36 55 NO 9,4 33,2 0,0
Últims 13 mesos disponibles
03/2020 7,7 10,6 14,4 14,7 11,6 19,9 28,1 20,4 35 69 94 NE 5,1 39,3 132,0
02/2020 6,4 9,9 13,9 14,6 14,7 21,0 26,6 20,2 47 82 100 W 4,2 24,6 4,6
01/2020 4,1 7,3 12,0 11,2 9,5 16,8 22,2 18,1 66 87 99 O 3,9 31,9 63,1
12/2019 6,3 10,0 16,2 13,4 12,9 18,2 24,6 18,3 54 85 99 NW 4,8 41,2 62,1
11/2019 6,5 10,8 18,8 15,0 15,3 20,1 27,8 21,3 52 70 100 NW 6,0 36,2 12,8
10/2019 10,6 15,6 19,7 19,9 15,3 25,4 33,9 23,3 61 83 100 NW 3,7 27,1 31,9
09/2019 15,4 19,8 22,7 23,3 21,4 27,9 33,2 17,8 61 89 100 NE 3,8 35,4 234,9
08/2019 18,4 21,8 24,9 26,2 27,5 31,2 38,8 20,4 58 85 94 NE 3,8 29,2 125,5
07/2019 20,3 21,9 24,6 26,7 28,6 31,9 36,9 16,6 44 74 89 NE 4,4 31,3 0,0
06/2019 13,0 17,6 23,1 22,9 23,1 28,1 34,9 21,9 39 62 79 NE 4,5 31,5 0,8
05/2019 11,4 14,5 18,7 19,3 20,1 24,3 30,6 19,2 43 67 78 NE 4,4 28,8 3,4
04/2019 7,3 11,1 14,0 15,7 14,2 21,1 29,3 22,0 43 68 96 W 5,5 41,0 115,3
03/2019 7,0 9,4 12,0 14,4 13,6 20,6 29,1 22,1 38 63 94 N 4,3 35,9 21,7
Tots els anys disponibles
2019 2,9 14,1 24,9 18,5 12,9 23,9 38,8 35,9 32 72 100 NE 4,6 41,2 623,3
2018 2,3 14,1 25,2 18,6 8,6 24,1 38,8 36,5 34 67 93 NE 4,7 41,8 292,4
2017 0,2 13,7 23,9 18,8 4,1 25,3 42,2 42,0 32 68 98 NE 4,5 47,6 246,2
2016 3,7 14,5 18,7 23,9 40,5 36,8 13 68 100 S 4,6 42,7 355,1
2015 2,6 14,7 18,9 24,2 40,8 38,2 6 66 100 SO 4,8 46,2 238,3
2014 3,1 14,7 19,0 24,3 37,8 34,7 11 65 100 SO 4,9 97,4 89,4
2013 1,6 13,9 18,2 23,3 35,0 33,4 14 64 100 O 4,8 44,6 115,7
2012 -1,4 13,7 24,9 18,2 10,0 23,7 38,8 40,2 28 67 94 W 4,4 35,9 227,0
2011 0,0 14,8 24,7 19,0 9,4 24,2 38,6 38,6 32 70 94 NE 4,7 44,0 274,0
2010 -0,5 13,1 24,5 17,3 6,4 22,3 41,7 42,2 33 69 97 4,4 50,0 395,0
2009 0,0 14,5 24,9 18,9 8,3 24,2 43,2 43,2 33 68 94 4,8 45,0 423,4
2008 296,0
2007 408,6
Temperatura (°C)
Humitat relativa (%)
Velocitat del vent i ràfega màxima (km/h)
Direcció del vent (°)
Pressió (hPa)
Precipitació (mm)
Nota sobre les dades: s'avisa a l'usuari de la provisionalitat i no oficialitat d'aquestes dades
Logo AVAMET blanc
Web allotjada a Sollutia
Llicència de Creative CommonsLa web d'AVAMET i els seus continguts estan subjectes a una llicència de
Reconeixement - No Comercial - Compartir igual
Últimes estacions:  Altea - Com. Regants (Soci), Almoines (Inforatge), Beniparrell (Inforatge), Albal (Inforatge), Almussafes - Parc Industrial (Inforatge), La Vilavella (Soci), la Serratella (soci) - - -